Latest Weather Observations for Flinders Reef

IDQ60801

Issued at 8:31 am EST Sunday 1 March 2015 (issued every 30 minutes, with the page automatically refreshed every 10 minutes)

About weather observations | Map of weather stations | Latest weather observations for QLD | Other Formats
Station Details ID: 200783 Name: FLINDERS REEF Lat: -17.72 Lon: 148.45 Height: 2.6 m
Data from the previous 72 hours. | See also: Recent months at Flinders Reef
Date/Time
EST
Temp
°C
App
Temp
°C
Dew
Point
Rel
Hum
%
Delta-T
°C
Wind Press
QNH
hPa
Press
MSL
hPa
Rain
since 9 am
mm
Dir
 
Spd
km/h
Gust
km/h
Spd
kts
Gust
kts
01/08:30am - - - - - CALM 0 0 0 0 1009.1 - -
01/08:24am - - - - - CALM 0 0 0 0 1009.1 1009.0 -
01/08:00am - - - - - ENE 4 7 2 4 1009.0 - -
01/07:30am - - - - - ENE 7 9 4 5 1008.5 - -
01/07:24am - - - - - ENE 7 - 4 - - 1008.3 -
01/07:00am - - - - - ENE 7 9 4 5 1008.2 - -
01/06:30am - - - - - ENE 9 11 5 6 1007.9 - -
01/06:24am - - - - - ENE 9 - 5 - - 1007.7 -
01/06:00am - - - - - E 9 13 5 7 1007.6 - -
01/05:30am - - - - - E 11 13 6 7 1007.5 - -
01/05:24am - - - - - E 9 - 5 - - 1007.5 -
01/05:00am - - - - - E 9 11 5 6 1007.3 - -
01/04:30am - - - - - E 11 13 6 7 1007.4 - -
01/04:24am - - - - - E 9 - 5 - - 1007.3 -
01/04:00am - - - - - E 11 15 6 8 1007.2 - -
01/03:30am - - - - - E 15 17 8 9 1007.1 - -
01/03:24am - - - - - E 13 - 7 - - 1007.0 -
01/03:00am - - - - - E 13 17 7 9 1007.2 - -
01/02:30am - - - - - E 13 17 7 9 1007.4 - -
01/02:24am - - - - - E 13 - 7 - - 1007.4 -
01/02:00am - - - - - E 13 17 7 9 1007.6 - -
01/01:30am - - - - - E 15 17 8 9 1008.1 - -
01/01:24am - - - - - E 15 - 8 - - 1008.0 -
01/01:00am - - - - - E 15 19 8 10 1008.6 - -
01/12:30am - - - - - E 17 20 9 11 1008.9 - -
01/12:24am - - - - - E 15 - 8 - - 1008.8 -
01/12:00am - - - - - E 17 20 9 11 1009.1 - -
 
Date/Time
EST
Temp
°C
App
Temp
°C
Dew
Point
Rel
Hum
%
Delta-T
°C
Wind Press
QNH
hPa
Press
MSL
hPa
Rain
since 9 am
mm
Dir
 
Spd
km/h
Gust
km/h
Spd
kts
Gust
kts
28/11:30pm - - - - - E 19 20 10 11 1009.2 - -
28/11:24pm - - - - - E 19 - 10 - - 1009.1 -
28/11:00pm - - - - - E 17 20 9 11 1009.1 - -
28/10:30pm - - - - - E 19 20 10 11 1009.0 - -
28/10:24pm - - - - - E 19 - 10 - - 1008.9 -
28/10:00pm - - - - - E 19 22 10 12 1009.2 - -
28/09:30pm - - - - - E 17 20 9 11 1009.0 - -
28/09:24pm - - - - - ENE 17 - 9 - - 1008.8 -
28/09:00pm - - - - - ENE 17 20 9 11 1008.9 - -
28/08:30pm - - - - - ENE 17 20 9 11 1008.6 - -
28/08:24pm - - - - - ENE 17 - 9 - - 1008.4 -
28/08:00pm - - - - - ENE 17 19 9 10 1008.5 - -
28/07:30pm - - - - - ENE 17 20 9 11 1008.0 - -
28/07:24pm - - - - - ENE 19 - 10 - - 1007.8 -
28/07:00pm - - - - - ENE 17 20 9 11 1007.6 - -
28/06:30pm - - - - - E 17 19 9 10 1007.5 - -
28/06:24pm - - - - - E 15 - 8 - - 1007.4 -
28/06:00pm - - - - - ENE 15 20 8 11 1007.4 - -
28/05:30pm - - - - - ENE 15 19 8 10 1007.2 - -
28/05:24pm - - - - - ENE 15 - 8 - - 1007.1 -
28/05:00pm - - - - - ENE 17 20 9 11 1007.2 - -
28/04:30pm - - - - - ENE 17 19 9 10 1007.2 - -
28/04:24pm - - - - - ENE 15 - 8 - - 1007.0 -
28/04:00pm - - - - - ENE 13 15 7 8 1006.9 - -
28/03:30pm - - - - - ENE 15 20 8 11 1006.9 - -
28/03:24pm - - - - - ENE 15 - 8 - - 1006.9 -
28/03:00pm - - - - - ENE 15 20 8 11 1007.1 - -
28/02:30pm - - - - - ENE 13 19 7 10 1007.3 - -
28/02:24pm - - - - - E 13 - 7 - - 1007.3 -
28/02:00pm - - - - - SSE 13 17 7 9 1007.4 - -
28/01:30pm - - - - - S 13 15 7 8 1007.5 - -
28/01:24pm - - - - - S 11 - 6 - - 1007.5 -
28/01:00pm - - - - - S 11 15 6 8 1007.9 - -
28/12:30pm - - - - - S 11 15 6 8 1008.2 - -
28/12:24pm - - - - - S 11 - 6 - - 1008.1 -
28/12:00pm - - - - - S 9 13 5 7 1008.4 - -
28/11:30am - - - - - S 9 11 5 6 1008.5 - -
28/11:24am - - - - - S 9 - 5 - - 1008.4 -
28/11:00am - - - - - S 9 11 5 6 1008.4 - -
28/10:30am - - - - - S 6 9 3 5 1008.4 - -
28/10:24am - - - - - S 6 - 3 - - 1008.4 -
28/10:00am - - - - - S 7 9 4 5 1008.6 - -
28/09:30am - - - - - S 7 11 4 6 1008.7 - -
28/09:24am - - - - - S 9 - 5 - - 1008.6 -
28/09:00am - - - - - S 9 11 5 6 1008.6 - -
28/08:30am - - - - - S 6 9 3 5 1008.5 - -
28/08:24am - - - - - S 4 - 2 - - 1008.3 -
28/08:00am - - - - - S 7 9 4 5 1008.1 - -
28/07:30am - - - - - S 9 13 5 7 1007.9 - -
28/07:24am - - - - - S 11 - 6 - - 1007.7 -
28/07:00am - - - - - S 7 9 4 5 1007.4 - -
28/06:30am - - - - - S 9 11 5 6 1007.2 - -
28/06:24am - - - - - S 9 - 5 - - 1007.1 -
28/06:00am - - - - - E 9 11 5 6 1007.2 - -
28/05:30am - - - - - E 7 11 4 6 1006.7 - -
28/05:24am - - - - - E 6 - 3 - - 1006.5 -
28/05:00am - - - - - E 6 7 3 4 1006.3 - -
28/04:30am - - - - - E 4 7 2 4 1006.4 - -
28/04:24am - - - - - E 2 - 1 - - 1006.3 -
28/04:00am - - - - - CALM 0 2 0 1 1006.7 - -
28/03:30am - - - - - E 2 7 1 4 1007.0 - -
28/03:24am - - - - - CALM 0 - 0 - - 1006.9 -
28/03:00am - - - - - E 7 9 4 5 1006.6 - -
28/02:30am - - - - - E 7 11 4 6 1006.7 - -
28/02:24am - - - - - E 9 - 5 - - 1006.8 -
28/02:00am - - - - - E 9 11 5 6 1007.0 - -
28/01:30am - - - - - E 9 11 5 6 1007.5 - -
28/01:24am - - - - - E 9 - 5 - - 1007.4 -
28/01:00am - - - - - E 7 9 4 5 1007.8 - -
28/12:30am - - - - - E 9 11 5 6 1008.2 - -
28/12:24am - - - - - E 7 - 4 - - 1008.2 -
28/12:00am - - - - - E 11 13 6 7 1008.5 - -
 
Date/Time
EST
Temp
°C
App
Temp
°C
Dew
Point
Rel
Hum
%
Delta-T
°C
Wind Press
QNH
hPa
Press
MSL
hPa
Rain
since 9 am
mm
Dir
 
Spd
km/h
Gust
km/h
Spd
kts
Gust
kts
27/11:30pm - - - - - E 11 15 6 8 1008.4 - -
27/11:24pm - - - - - E 13 - 7 - - 1008.4 -
27/11:00pm - - - - - E 13 17 7 9 1008.6 - -
27/10:30pm - - - - - E 9 11 5 6 1008.8 - -
27/10:24pm - - - - - E 9 - 5 - - 1008.7 -
27/10:00pm - - - - - E 11 13 6 7 1008.6 - -
27/09:30pm - - - - - E 13 17 7 9 1008.4 - -
27/09:24pm - - - - - E 13 - 7 - - 1008.2 -
27/09:00pm - - - - - E 13 19 7 10 1008.3 - -
27/08:30pm - - - - - E 15 17 8 9 1007.9 - -
27/08:24pm - - - - - E 15 - 8 - - 1007.6 -
27/08:00pm - - - - - E 13 15 7 8 1007.6 - -
27/07:30pm - - - - - E 9 11 5 6 1007.5 - -
27/07:24pm - - - - - E 11 - 6 - - 1007.2 -
27/07:00pm - - - - - SE 9 13 5 7 1006.8 - -
27/06:30pm - - - - - ESE 9 13 5 7 1006.4 - -
27/06:24pm - - - - - ESE 9 - 5 - - 1006.2 -
27/06:00pm - - - - - ESE 9 13 5 7 1006.1 - -
27/05:30pm - - - - - SE 9 11 5 6 1006.0 - -
27/05:24pm - - - - - SE 9 - 5 - - 1005.8 -
27/05:00pm - - - - - SE 9 11 5 6 1005.8 - -
27/04:30pm - - - - - SE 9 13 5 7 1005.9 - -
27/04:24pm - - - - - SE 9 - 5 - - 1005.8 -
27/04:00pm - - - - - SE 9 13 5 7 1005.7 - -
27/03:30pm - - - - - SE 11 15 6 8 1005.9 - -
27/03:24pm - - - - - SE 11 - 6 - - 1005.8 -
27/03:00pm - - - - - SE 9 13 5 7 1006.2 - -
27/02:30pm - - - - - SE 11 13 6 7 1006.4 - -
27/02:24pm - - - - - SE 11 - 6 - - 1006.4 -
27/02:00pm - - - - - SE 11 13 6 7 1006.7 - -
27/01:30pm - - - - - ESE 11 15 6 8 1006.8 - -
27/01:24pm - - - - - ESE 11 - 6 - - 1006.8 -
27/01:00pm - - - - - ESE 9 11 5 6 1007.2 - -
27/12:30pm - - - - - ESE 9 13 5 7 1007.4 - -
27/12:24pm - - - - - ESE 9 - 5 - - 1007.4 -
27/12:00pm - - - - - ESE 9 15 5 8 1007.6 - -
27/11:30am - - - - - ESE 7 9 4 5 1007.9 - -
27/11:24am - - - - - ESE 6 - 3 - - 1007.8 -
27/11:00am - - - - - CALM 0 0 0 0 1007.9 - -
27/10:30am - - - - - CALM 0 0 0 0 1007.9 - -
27/10:24am - - - - - CALM 0 - 0 - - 1007.8 -
27/10:00am - - - - - ESE 2 7 1 4 1008.0 - -
27/09:30am - - - - - CALM 0 7 0 4 1008.0 - -
27/09:24am - - - - - CALM 0 - 0 - - 1007.8 -
27/09:00am - - - - - ESE 6 9 3 5 1007.8 - -
27/08:30am - - - - - ESE 2 7 1 4 1007.7 - -
27/08:24am - - - - - CALM 0 - 0 - - 1007.6 -
27/08:00am - - - - - ESE 2 7 1 4 1007.6 - -
27/07:30am - - - - - ESE 6 7 3 4 1007.4 - -
27/07:24am - - - - - ESE 4 - 2 - - 1007.3 -
27/07:00am - - - - - ESE 7 9 4 5 1007.1 - -
27/06:30am - - - - - ESE 9 11 5 6 1006.9 - -
27/06:24am - - - - - ESE 9 - 5 - - 1006.8 -
27/06:00am - - - - - ESE 9 13 5 7 1006.8 - -
27/05:30am - - - - - E 9 11 5 6 1006.5 - -
27/05:24am - - - - - E 9 - 5 - - 1006.3 -
27/05:00am - - - - - E 9 11 5 6 1006.3 - -
27/04:30am - - - - - E 11 13 6 7 1006.2 - -
27/04:24am - - - - - E 11 - 6 - - 1006.2 -
27/04:00am - - - - - E 13 17 7 9 1006.0 - -
27/03:30am - - - - - E 13 17 7 9 1005.9 - -
27/03:24am - - - - - E 15 - 8 - - 1005.9 -
27/03:00am - - - - - E 17 24 9 13 1006.0 - -
27/02:30am - - - - - E 17 19 9 10 1006.0 - -
27/02:24am - - - - - E 19 - 10 - - 1006.0 -
27/02:00am - - - - - E 20 24 11 13 1006.5 - -
27/01:30am - - - - - E 20 24 11 13 1006.7 - -
27/01:24am - - - - - E 19 - 10 - - 1006.8 -
27/01:00am - - - - - E 20 24 11 13 1006.9 - -
27/12:30am - - - - - E 20 24 11 13 1007.3 - -
27/12:24am - - - - - E 20 - 11 - - 1007.3 -
27/12:00am - - - - - E 22 26 12 14 1007.8 - -
 
Date/Time
EST
Temp
°C
App
Temp
°C
Dew
Point
Rel
Hum
%
Delta-T
°C
Wind Press
QNH
hPa
Press
MSL
hPa
Rain
since 9 am
mm
Dir
 
Spd
km/h
Gust
km/h
Spd
kts
Gust
kts
26/11:30pm - - - - - E 22 26 12 14 1007.9 - -
26/11:24pm - - - - - E 22 - 12 - - 1007.9 -
26/11:00pm - - - - - ESE 24 28 13 15 1008.0 - -
26/10:30pm - - - - - ESE 22 26 12 14 1008.0 - -
26/10:24pm - - - - - ESE 22 - 12 - - 1007.9 -
26/10:00pm - - - - - ESE 19 22 10 12 1007.9 - -
26/09:30pm - - - - - SE 19 20 10 11 1007.6 - -
26/09:24pm - - - - - SE 20 - 11 - - 1007.5 -
26/09:00pm - - - - - SE 20 24 11 13 1007.3 - -
26/08:30pm - - - - - ESE 22 26 12 14 1007.0 - -
26/08:24pm - - - - - ESE 20 - 11 - - 1006.9 -
26/08:00pm - - - - - SE 20 24 11 13 1006.6 - -
26/07:30pm - - - - - SE 20 26 11 14 1006.4 - -
26/07:24pm - - - - - SE 20 - 11 - - 1006.2 -
26/07:00pm - - - - - SE 24 28 13 15 1005.9 - -
26/06:30pm - - - - - SSE 22 26 12 14 1005.8 - -
26/06:24pm - - - - - SSE 22 - 12 - - 1005.7 -
26/06:00pm - - - - - SSE 24 26 13 14 1005.6 - -
26/05:30pm - - - - - SSE 22 26 12 14 1005.5 - -
26/05:24pm - - - - - SSE 20 - 11 - - 1005.5 -
26/05:00pm - - - - - SSE 22 24 12 13 1005.5 - -
26/04:30pm - - - - - SSE 22 26 12 14 1005.2 - -
26/04:24pm - - - - - SSE 22 - 12 - - 1005.1 -
26/04:00pm - - - - - SSE 22 28 12 15 1005.0 - -
26/03:30pm - - - - - SSE 24 28 13 15 1005.1 - -
26/03:24pm - - - - - SSE 24 - 13 - - 1004.9 -
26/03:00pm - - - - - SSE 26 30 14 16 1005.1 - -
26/02:30pm - - - - - SSE 26 30 14 16 1005.4 - -
26/02:24pm - - - - - SSE 26 - 14 - - 1005.3 -
26/02:00pm - - - - - SSE 24 30 13 16 1005.7 - -
26/01:30pm - - - - - SSE 24 28 13 15 1005.9 - -
26/01:24pm - - - - - SSE 24 - 13 - - 1005.9 -
26/01:00pm - - - - - SSE 24 30 13 16 1006.3 - -
26/12:30pm - - - - - SSE 24 32 13 17 1006.7 - -
26/12:24pm - - - - - SSE 24 - 13 - - 1006.6 -
26/12:00pm - - - - - SSE 24 28 13 15 1007.3 - -
26/11:30am - - - - - SSE 26 28 14 15 1007.8 - -
26/11:24am - - - - - SSE 24 - 13 - - 1007.8 -
26/11:00am - - - - - SSE 24 28 13 15 1007.9 - -
26/10:30am - - - - - SSE 24 28 13 15 1008.0 - -
26/10:24am - - - - - SSE 24 - 13 - - 1007.9 -
26/10:00am - - - - - SSE 22 28 12 15 1008.1 - -
26/09:30am - - - - - SSE 24 30 13 16 1008.2 - -
26/09:24am - - - - - SSE 22 - 12 - - 1008.0 -
26/09:00am - - - - - SSE 20 24 11 13 1008.1 - -

Other Formats:

Comma delimited format used in spreadsheet applications
http://www.bom.gov.au/fwo/IDQ60801/IDQ60801.94290.axf

JavaScript Object Notation format (JSON) in row-major order
http://www.bom.gov.au/fwo/IDQ60801/IDQ60801.94290.json